sensor_id;sensor_type;location;lat;lon;timestamp;P1;durP1;ratioP1;P2;durP2;ratioP2
11247;SDS011;5681;53.316;13.950;2023-05-10T00:00:17;7.60;;;4.05;;
11247;SDS011;5681;53.316;13.950;2023-05-10T00:02:45;5.60;;;4.03;;
11247;SDS011;5681;53.316;13.950;2023-05-10T00:05:12;11.50;;;4.40;;
11247;SDS011;5681;53.316;13.950;2023-05-10T00:07:38;6.70;;;4.18;;
11247;SDS011;5681;53.316;13.950;2023-05-10T00:10:05;7.47;;;4.10;;
11247;SDS011;5681;53.316;13.950;2023-05-10T00:12:31;7.38;;;4.00;;
11247;SDS011;5681;53.316;13.950;2023-05-10T00:14:59;6.97;;;3.92;;
11247;SDS011;5681;53.316;13.950;2023-05-10T00:17:25;6.57;;;4.30;;
11247;SDS011;5681;53.316;13.950;2023-05-10T00:19:52;17.55;;;4.55;;
11247;SDS011;5681;53.316;13.950;2023-05-10T00:22:18;9.20;;;4.35;;
11247;SDS011;5681;53.316;13.950;2023-05-10T00:24:44;8.35;;;4.43;;
11247;SDS011;5681;53.316;13.950;2023-05-10T00:27:11;8.38;;;4.45;;
11247;SDS011;5681;53.316;13.950;2023-05-10T00:29:37;10.65;;;4.95;;
11247;SDS011;5681;53.316;13.950;2023-05-10T00:32:05;7.55;;;4.50;;
11247;SDS011;5681;53.316;13.950;2023-05-10T00:34:31;16.90;;;4.60;;
11247;SDS011;5681;53.316;13.950;2023-05-10T00:36:58;7.60;;;4.30;;
11247;SDS011;5681;53.316;13.950;2023-05-10T00:39:24;8.18;;;4.20;;
11247;SDS011;5681;53.316;13.950;2023-05-10T00:41:51;7.43;;;4.15;;
11247;SDS011;5681;53.316;13.950;2023-05-10T00:44:17;7.63;;;4.60;;
11247;SDS011;5681;53.316;13.950;2023-05-10T00:46:44;12.05;;;5.00;;
11247;SDS011;5681;53.316;13.950;2023-05-10T00:49:12;9.35;;;4.82;;
11247;SDS011;5681;53.316;13.950;2023-05-10T00:51:38;6.00;;;4.68;;
11247;SDS011;5681;53.316;13.950;2023-05-10T00:54:05;10.02;;;4.80;;
11247;SDS011;5681;53.316;13.950;2023-05-10T00:56:31;10.52;;;4.82;;
11247;SDS011;5681;53.316;13.950;2023-05-10T00:58:57;7.13;;;4.30;;
11247;SDS011;5681;53.316;13.950;2023-05-10T01:01:24;8.57;;;4.82;;
11247;SDS011;5681;53.316;13.950;2023-05-10T01:03:50;8.23;;;4.60;;
11247;SDS011;5681;53.316;13.950;2023-05-10T01:06:18;8.35;;;4.90;;
11247;SDS011;5681;53.316;13.950;2023-05-10T01:08:45;9.25;;;4.72;;
11247;SDS011;5681;53.316;13.950;2023-05-10T01:11:11;6.05;;;4.35;;
11247;SDS011;5681;53.316;13.950;2023-05-10T01:13:38;7.47;;;4.95;;
11247;SDS011;5681;53.316;13.950;2023-05-10T01:16:06;4.93;;;4.10;;
11247;SDS011;5681;53.316;13.950;2023-05-10T01:18:33;10.30;;;4.93;;
11247;SDS011;5681;53.316;13.950;2023-05-10T01:21:04;7.78;;;4.60;;
11247;SDS011;5681;53.316;13.950;2023-05-10T01:23:49;8.60;;;4.93;;
11247;SDS011;5681;53.316;13.950;2023-05-10T01:29:36;5.95;;;4.53;;
11247;SDS011;5681;53.316;13.950;2023-05-10T01:32:32;10.98;;;4.65;;
11247;SDS011;5681;53.316;13.950;2023-05-10T01:35:02;8.75;;;4.90;;
11247;SDS011;5681;53.316;13.950;2023-05-10T01:37:41;5.32;;;4.35;;
11247;SDS011;5681;53.316;13.950;2023-05-10T01:40:13;10.07;;;5.30;;
11247;SDS011;5681;53.316;13.950;2023-05-10T01:42:46;7.32;;;4.88;;
11247;SDS011;5681;53.316;13.950;2023-05-10T01:45:15;10.20;;;5.15;;
11247;SDS011;5681;53.316;13.950;2023-05-10T01:47:48;7.45;;;4.68;;
11247;SDS011;5681;53.316;13.950;2023-05-10T01:50:18;11.23;;;5.22;;
11247;SDS011;5681;53.316;13.950;2023-05-10T01:52:46;10.32;;;5.07;;
11247;SDS011;5681;53.316;13.950;2023-05-10T01:55:16;9.68;;;4.85;;
11247;SDS011;5681;53.316;13.950;2023-05-10T01:57:44;8.48;;;4.90;;
11247;SDS011;5681;53.316;13.950;2023-05-10T02:00:13;12.07;;;4.90;;
11247;SDS011;5681;53.316;13.950;2023-05-10T02:02:40;10.30;;;5.25;;
11247;SDS011;5681;53.316;13.950;2023-05-10T02:05:09;7.97;;;4.95;;
11247;SDS011;5681;53.316;13.950;2023-05-10T02:07:38;6.00;;;4.97;;
11247;SDS011;5681;53.316;13.950;2023-05-10T02:10:05;11.13;;;5.20;;
11247;SDS011;5681;53.316;13.950;2023-05-10T02:12:34;11.80;;;5.40;;
11247;SDS011;5681;53.316;13.950;2023-05-10T02:15:02;9.88;;;5.10;;
11247;SDS011;5681;53.316;13.950;2023-05-10T02:17:30;8.07;;;4.85;;
11247;SDS011;5681;53.316;13.950;2023-05-10T02:19:58;9.00;;;4.83;;
11247;SDS011;5681;53.316;13.950;2023-05-10T02:22:26;8.85;;;5.20;;
11247;SDS011;5681;53.316;13.950;2023-05-10T02:24:53;8.02;;;5.25;;
11247;SDS011;5681;53.316;13.950;2023-05-10T02:27:20;9.80;;;5.40;;
11247;SDS011;5681;53.316;13.950;2023-05-10T02:29:46;6.13;;;4.95;;
11247;SDS011;5681;53.316;13.950;2023-05-10T02:32:14;7.68;;;4.88;;
11247;SDS011;5681;53.316;13.950;2023-05-10T02:34:41;9.38;;;5.55;;
11247;SDS011;5681;53.316;13.950;2023-05-10T02:37:09;7.07;;;4.97;;
11247;SDS011;5681;53.316;13.950;2023-05-10T02:39:37;5.82;;;4.80;;
11247;SDS011;5681;53.316;13.950;2023-05-10T02:42:08;9.88;;;5.20;;
11247;SDS011;5681;53.316;13.950;2023-05-10T02:44:36;9.45;;;5.72;;
11247;SDS011;5681;53.316;13.950;2023-05-10T02:47:03;12.02;;;5.15;;
11247;SDS011;5681;53.316;13.950;2023-05-10T02:49:29;10.68;;;5.55;;
11247;SDS011;5681;53.316;13.950;2023-05-10T02:51:56;6.55;;;5.00;;
11247;SDS011;5681;53.316;13.950;2023-05-10T02:54:28;9.02;;;5.35;;
11247;SDS011;5681;53.316;13.950;2023-05-10T02:56:57;9.68;;;5.68;;
11247;SDS011;5681;53.316;13.950;2023-05-10T02:59:25;5.88;;;4.88;;
11247;SDS011;5681;53.316;13.950;2023-05-10T03:01:51;10.88;;;5.68;;
11247;SDS011;5681;53.316;13.950;2023-05-10T03:04:18;10.20;;;5.15;;
11247;SDS011;5681;53.316;13.950;2023-05-10T03:06:44;9.18;;;5.47;;
11247;SDS011;5681;53.316;13.950;2023-05-10T03:09:11;9.75;;;5.38;;
11247;SDS011;5681;53.316;13.950;2023-05-10T03:11:43;8.40;;;5.33;;
11247;SDS011;5681;53.316;13.950;2023-05-10T03:14:21;10.20;;;5.80;;
11247;SDS011;5681;53.316;13.950;2023-05-10T03:16:52;10.05;;;5.63;;
11247;SDS011;5681;53.316;13.950;2023-05-10T03:19:24;7.47;;;5.40;;
11247;SDS011;5681;53.316;13.950;2023-05-10T03:21:52;10.38;;;5.72;;
11247;SDS011;5681;53.316;13.950;2023-05-10T03:24:20;9.98;;;5.93;;
11247;SDS011;5681;53.316;13.950;2023-05-10T03:26:48;7.60;;;5.40;;
11247;SDS011;5681;53.316;13.950;2023-05-10T03:29:15;8.73;;;5.70;;
11247;SDS011;5681;53.316;13.950;2023-05-10T03:31:43;10.87;;;5.80;;
11247;SDS011;5681;53.316;13.950;2023-05-10T03:34:09;11.03;;;5.63;;
11247;SDS011;5681;53.316;13.950;2023-05-10T03:36:36;9.13;;;6.28;;
11247;SDS011;5681;53.316;13.950;2023-05-10T03:39:02;7.73;;;6.00;;
11247;SDS011;5681;53.316;13.950;2023-05-10T03:41:28;8.73;;;5.60;;
11247;SDS011;5681;53.316;13.950;2023-05-10T03:43:55;11.18;;;6.43;;
11247;SDS011;5681;53.316;13.950;2023-05-10T03:46:21;12.50;;;5.95;;
11247;SDS011;5681;53.316;13.950;2023-05-10T03:48:49;8.00;;;5.60;;
11247;SDS011;5681;53.316;13.950;2023-05-10T03:51:15;9.60;;;5.97;;
11247;SDS011;5681;53.316;13.950;2023-05-10T03:53:41;9.80;;;6.00;;
11247;SDS011;5681;53.316;13.950;2023-05-10T03:56:08;9.48;;;6.00;;
11247;SDS011;5681;53.316;13.950;2023-05-10T03:58:34;9.20;;;6.20;;
11247;SDS011;5681;53.316;13.950;2023-05-10T04:01:00;7.40;;;5.70;;
11247;SDS011;5681;53.316;13.950;2023-05-10T04:03:27;10.93;;;6.60;;
11247;SDS011;5681;53.316;13.950;2023-05-10T04:05:59;12.57;;;6.17;;
11247;SDS011;5681;53.316;13.950;2023-05-10T04:08:26;9.00;;;6.28;;
11247;SDS011;5681;53.316;13.950;2023-05-10T04:10:52;10.15;;;6.22;;
11247;SDS011;5681;53.316;13.950;2023-05-10T04:13:19;12.07;;;6.53;;
11247;SDS011;5681;53.316;13.950;2023-05-10T04:15:46;8.20;;;5.70;;
11247;SDS011;5681;53.316;13.950;2023-05-10T04:18:12;7.77;;;6.00;;
11247;SDS011;5681;53.316;13.950;2023-05-10T04:20:38;8.43;;;6.17;;
11247;SDS011;5681;53.316;13.950;2023-05-10T04:23:06;10.95;;;6.55;;
11247;SDS011;5681;53.316;13.950;2023-05-10T04:25:33;9.80;;;5.97;;
11247;SDS011;5681;53.316;13.950;2023-05-10T04:28:00;9.63;;;6.30;;
11247;SDS011;5681;53.316;13.950;2023-05-10T04:30:26;9.47;;;6.23;;
11247;SDS011;5681;53.316;13.950;2023-05-10T04:32:54;8.43;;;6.15;;
11247;SDS011;5681;53.316;13.950;2023-05-10T04:35:20;6.68;;;5.70;;
11247;SDS011;5681;53.316;13.950;2023-05-10T04:37:46;12.57;;;5.70;;
11247;SDS011;5681;53.316;13.950;2023-05-10T04:40:14;9.57;;;5.82;;
11247;SDS011;5681;53.316;13.950;2023-05-10T04:42:41;10.85;;;5.97;;
11247;SDS011;5681;53.316;13.950;2023-05-10T04:45:07;10.93;;;5.82;;
11247;SDS011;5681;53.316;13.950;2023-05-10T04:47:35;8.07;;;6.07;;
11247;SDS011;5681;53.316;13.950;2023-05-10T04:50:02;9.82;;;6.10;;
11247;SDS011;5681;53.316;13.950;2023-05-10T04:52:28;7.38;;;5.78;;
11247;SDS011;5681;53.316;13.950;2023-05-10T04:54:55;9.30;;;6.40;;
11247;SDS011;5681;53.316;13.950;2023-05-10T04:57:22;9.80;;;6.22;;
11247;SDS011;5681;53.316;13.950;2023-05-10T04:59:49;10.95;;;5.80;;
11247;SDS011;5681;53.316;13.950;2023-05-10T05:02:15;10.65;;;6.05;;
11247;SDS011;5681;53.316;13.950;2023-05-10T05:04:42;8.95;;;5.80;;
11247;SDS011;5681;53.316;13.950;2023-05-10T05:07:08;6.55;;;5.05;;
11247;SDS011;5681;53.316;13.950;2023-05-10T05:09:35;10.25;;;6.03;;
11247;SDS011;5681;53.316;13.950;2023-05-10T05:12:01;7.53;;;6.00;;
11247;SDS011;5681;53.316;13.950;2023-05-10T05:14:29;8.68;;;5.72;;
11247;SDS011;5681;53.316;13.950;2023-05-10T05:16:55;9.57;;;5.75;;
11247;SDS011;5681;53.316;13.950;2023-05-10T05:19:22;7.93;;;5.67;;
11247;SDS011;5681;53.316;13.950;2023-05-10T05:21:48;10.20;;;6.25;;
11247;SDS011;5681;53.316;13.950;2023-05-10T05:24:14;6.68;;;5.53;;
11247;SDS011;5681;53.316;13.950;2023-05-10T05:26:41;7.68;;;5.75;;
11247;SDS011;5681;53.316;13.950;2023-05-10T05:29:07;6.60;;;5.63;;
11247;SDS011;5681;53.316;13.950;2023-05-10T05:31:35;7.15;;;5.38;;
11247;SDS011;5681;53.316;13.950;2023-05-10T05:34:01;9.38;;;5.32;;
11247;SDS011;5681;53.316;13.950;2023-05-10T05:36:27;14.10;;;5.05;;
11247;SDS011;5681;53.316;13.950;2023-05-10T05:38:54;9.88;;;5.70;;
11247;SDS011;5681;53.316;13.950;2023-05-10T05:41:20;7.07;;;5.38;;
11247;SDS011;5681;53.316;13.950;2023-05-10T05:43:47;11.43;;;5.68;;
11247;SDS011;5681;53.316;13.950;2023-05-10T05:46:13;17.45;;;5.88;;
11247;SDS011;5681;53.316;13.950;2023-05-10T05:48:41;9.68;;;5.35;;
11247;SDS011;5681;53.316;13.950;2023-05-10T05:51:07;8.25;;;5.20;;
11247;SDS011;5681;53.316;13.950;2023-05-10T05:53:33;6.68;;;5.00;;
11247;SDS011;5681;53.316;13.950;2023-05-10T05:56:00;16.15;;;5.40;;
11247;SDS011;5681;53.316;13.950;2023-05-10T05:58:26;12.63;;;4.95;;
11247;SDS011;5681;53.316;13.950;2023-05-10T06:00:53;6.05;;;4.90;;
11247;SDS011;5681;53.316;13.950;2023-05-10T06:03:19;8.65;;;5.03;;
11247;SDS011;5681;53.316;13.950;2023-05-10T06:05:47;8.48;;;5.57;;
11247;SDS011;5681;53.316;13.950;2023-05-10T06:08:13;8.35;;;4.82;;
11247;SDS011;5681;53.316;13.950;2023-05-10T06:10:40;9.10;;;5.18;;
11247;SDS011;5681;53.316;13.950;2023-05-10T06:13:06;9.82;;;5.55;;
11247;SDS011;5681;53.316;13.950;2023-05-10T06:15:32;7.18;;;5.13;;
11247;SDS011;5681;53.316;13.950;2023-05-10T06:17:59;9.52;;;4.97;;
11247;SDS011;5681;53.316;13.950;2023-05-10T06:20:25;9.15;;;4.50;;
11247;SDS011;5681;53.316;13.950;2023-05-10T06:22:53;7.05;;;4.82;;
11247;SDS011;5681;53.316;13.950;2023-05-10T06:25:19;8.00;;;4.72;;
11247;SDS011;5681;53.316;13.950;2023-05-10T06:27:46;8.98;;;4.72;;
11247;SDS011;5681;53.316;13.950;2023-05-10T06:30:13;5.47;;;4.32;;
11247;SDS011;5681;53.316;13.950;2023-05-10T06:32:40;6.13;;;4.60;;
11247;SDS011;5681;53.316;13.950;2023-05-10T06:35:07;7.18;;;4.60;;
11247;SDS011;5681;53.316;13.950;2023-05-10T06:37:34;8.85;;;4.57;;
11247;SDS011;5681;53.316;13.950;2023-05-10T06:40:01;5.80;;;4.00;;
11247;SDS011;5681;53.316;13.950;2023-05-10T06:42:28;8.00;;;4.28;;
11247;SDS011;5681;53.316;13.950;2023-05-10T06:44:55;9.38;;;4.28;;
11247;SDS011;5681;53.316;13.950;2023-05-10T06:47:21;9.45;;;3.83;;
11247;SDS011;5681;53.316;13.950;2023-05-10T06:49:47;6.57;;;4.07;;
11247;SDS011;5681;53.316;13.950;2023-05-10T06:52:14;7.03;;;4.15;;
11247;SDS011;5681;53.316;13.950;2023-05-10T06:54:40;6.35;;;3.83;;
11247;SDS011;5681;53.316;13.950;2023-05-10T06:57:08;7.68;;;3.90;;
11247;SDS011;5681;53.316;13.950;2023-05-10T06:59:34;7.90;;;4.10;;
11247;SDS011;5681;53.316;13.950;2023-05-10T07:02:01;8.60;;;3.83;;
11247;SDS011;5681;53.316;13.950;2023-05-10T07:04:28;7.15;;;4.07;;
11247;SDS011;5681;53.316;13.950;2023-05-10T07:06:54;6.30;;;4.00;;
11247;SDS011;5681;53.316;13.950;2023-05-10T07:09:20;8.40;;;3.72;;
11247;SDS011;5681;53.316;13.950;2023-05-10T07:11:48;6.82;;;3.90;;
11247;SDS011;5681;53.316;13.950;2023-05-10T07:14:16;6.10;;;3.90;;
11247;SDS011;5681;53.316;13.950;2023-05-10T07:16:42;5.18;;;4.05;;
11247;SDS011;5681;53.316;13.950;2023-05-10T07:19:09;5.65;;;3.58;;
11247;SDS011;5681;53.316;13.950;2023-05-10T07:21:35;5.97;;;4.18;;
11247;SDS011;5681;53.316;13.950;2023-05-10T07:24:02;7.47;;;3.83;;
11247;SDS011;5681;53.316;13.950;2023-05-10T07:26:30;7.68;;;4.10;;
11247;SDS011;5681;53.316;13.950;2023-05-10T07:28:56;6.88;;;3.67;;
11247;SDS011;5681;53.316;13.950;2023-05-10T07:31:24;5.93;;;3.50;;
11247;SDS011;5681;53.316;13.950;2023-05-10T07:33:50;7.72;;;4.20;;
11247;SDS011;5681;53.316;13.950;2023-05-10T07:36:16;4.95;;;3.45;;
11247;SDS011;5681;53.316;13.950;2023-05-10T07:38:43;5.18;;;3.45;;
11247;SDS011;5681;53.316;13.950;2023-05-10T07:41:09;7.88;;;4.07;;
11247;SDS011;5681;53.316;13.950;2023-05-10T07:43:35;6.32;;;3.95;;
11247;SDS011;5681;53.316;13.950;2023-05-10T07:46:03;4.88;;;3.92;;
11247;SDS011;5681;53.316;13.950;2023-05-10T07:48:31;5.53;;;3.50;;
11247;SDS011;5681;53.316;13.950;2023-05-10T07:50:57;5.72;;;3.65;;
11247;SDS011;5681;53.316;13.950;2023-05-10T07:53:25;5.28;;;3.75;;
11247;SDS011;5681;53.316;13.950;2023-05-10T07:55:52;5.93;;;3.78;;
11247;SDS011;5681;53.316;13.950;2023-05-10T07:58:20;7.72;;;3.67;;
11247;SDS011;5681;53.316;13.950;2023-05-10T08:00:47;6.97;;;3.75;;
11247;SDS011;5681;53.316;13.950;2023-05-10T08:03:14;4.70;;;3.35;;
11247;SDS011;5681;53.316;13.950;2023-05-10T08:05:41;5.53;;;3.45;;
11247;SDS011;5681;53.316;13.950;2023-05-10T08:08:08;5.65;;;3.20;;
11247;SDS011;5681;53.316;13.950;2023-05-10T08:10:34;5.07;;;3.33;;
11247;SDS011;5681;53.316;13.950;2023-05-10T08:13:00;6.60;;;3.45;;
11247;SDS011;5681;53.316;13.950;2023-05-10T08:15:27;6.18;;;3.30;;
11247;SDS011;5681;53.316;13.950;2023-05-10T08:17:53;6.45;;;3.47;;
11247;SDS011;5681;53.316;13.950;2023-05-10T08:20:19;9.70;;;3.58;;
11247;SDS011;5681;53.316;13.950;2023-05-10T08:22:48;7.20;;;3.47;;
11247;SDS011;5681;53.316;13.950;2023-05-10T08:25:14;5.55;;;3.30;;
11247;SDS011;5681;53.316;13.950;2023-05-10T08:27:41;6.43;;;3.17;;
11247;SDS011;5681;53.316;13.950;2023-05-10T08:30:08;6.47;;;3.20;;
11247;SDS011;5681;53.316;13.950;2023-05-10T08:32:35;6.05;;;3.17;;
11247;SDS011;5681;53.316;13.950;2023-05-10T08:35:03;4.43;;;2.95;;
11247;SDS011;5681;53.316;13.950;2023-05-10T08:37:29;7.95;;;3.22;;
11247;SDS011;5681;53.316;13.950;2023-05-10T08:39:58;5.70;;;3.20;;
11247;SDS011;5681;53.316;13.950;2023-05-10T08:42:25;5.47;;;3.30;;
11247;SDS011;5681;53.316;13.950;2023-05-10T08:44:52;3.90;;;2.85;;
11247;SDS011;5681;53.316;13.950;2023-05-10T08:47:19;5.30;;;3.05;;
11247;SDS011;5681;53.316;13.950;2023-05-10T08:49:45;5.22;;;3.08;;
11247;SDS011;5681;53.316;13.950;2023-05-10T08:52:13;7.65;;;3.10;;
11247;SDS011;5681;53.316;13.950;2023-05-10T08:54:41;3.55;;;2.83;;
11247;SDS011;5681;53.316;13.950;2023-05-10T08:57:09;6.90;;;3.10;;
11247;SDS011;5681;53.316;13.950;2023-05-10T08:59:35;8.77;;;2.90;;
11247;SDS011;5681;53.316;13.950;2023-05-10T09:02:04;4.45;;;2.90;;
11247;SDS011;5681;53.316;13.950;2023-05-10T09:04:31;4.80;;;2.97;;
11247;SDS011;5681;53.316;13.950;2023-05-10T09:06:57;7.03;;;3.20;;
11247;SDS011;5681;53.316;13.950;2023-05-10T09:09:23;5.93;;;3.20;;
11247;SDS011;5681;53.316;13.950;2023-05-10T09:11:51;4.63;;;3.17;;
11247;SDS011;5681;53.316;13.950;2023-05-10T09:14:19;4.35;;;2.60;;
11247;SDS011;5681;53.316;13.950;2023-05-10T09:16:45;4.93;;;2.80;;
11247;SDS011;5681;53.316;13.950;2023-05-10T09:19:12;8.85;;;2.70;;
11247;SDS011;5681;53.316;13.950;2023-05-10T09:21:39;9.32;;;3.08;;
11247;SDS011;5681;53.316;13.950;2023-05-10T09:24:05;5.32;;;2.80;;
11247;SDS011;5681;53.316;13.950;2023-05-10T09:26:32;7.05;;;2.67;;
11247;SDS011;5681;53.316;13.950;2023-05-10T09:29:00;4.03;;;3.00;;
11247;SDS011;5681;53.316;13.950;2023-05-10T09:34:11;8.07;;;3.40;;
11247;SDS011;5681;53.316;13.950;2023-05-10T09:36:48;4.10;;;2.83;;
11247;SDS011;5681;53.316;13.950;2023-05-10T09:39:16;5.18;;;2.50;;
11247;SDS011;5681;53.316;13.950;2023-05-10T09:41:42;4.43;;;2.40;;
11247;SDS011;5681;53.316;13.950;2023-05-10T09:44:09;4.80;;;2.65;;
11247;SDS011;5681;53.316;13.950;2023-05-10T09:46:35;5.60;;;2.80;;
11247;SDS011;5681;53.316;13.950;2023-05-10T09:49:03;5.57;;;2.47;;
11247;SDS011;5681;53.316;13.950;2023-05-10T09:51:31;8.20;;;2.45;;
11247;SDS011;5681;53.316;13.950;2023-05-10T09:54:08;7.35;;;2.45;;
11247;SDS011;5681;53.316;13.950;2023-05-10T09:56:36;4.93;;;2.42;;
11247;SDS011;5681;53.316;13.950;2023-05-10T09:59:05;6.72;;;2.67;;
11247;SDS011;5681;53.316;13.950;2023-05-10T10:01:31;3.05;;;2.15;;
11247;SDS011;5681;53.316;13.950;2023-05-10T10:03:58;3.60;;;2.28;;
11247;SDS011;5681;53.316;13.950;2023-05-10T10:06:26;7.15;;;2.40;;
11247;SDS011;5681;53.316;13.950;2023-05-10T10:08:53;6.82;;;2.33;;
11247;SDS011;5681;53.316;13.950;2023-05-10T10:11:21;4.18;;;2.25;;
11247;SDS011;5681;53.316;13.950;2023-05-10T10:13:47;3.38;;;2.17;;
11247;SDS011;5681;53.316;13.950;2023-05-10T10:16:14;4.13;;;2.15;;
11247;SDS011;5681;53.316;13.950;2023-05-10T10:18:40;3.45;;;2.30;;
11247;SDS011;5681;53.316;13.950;2023-05-10T10:21:07;2.85;;;2.45;;
11247;SDS011;5681;53.316;13.950;2023-05-10T10:23:35;7.55;;;2.50;;
11247;SDS011;5681;53.316;13.950;2023-05-10T10:26:01;5.40;;;2.35;;
11247;SDS011;5681;53.316;13.950;2023-05-10T10:28:32;6.25;;;2.17;;
11247;SDS011;5681;53.316;13.950;2023-05-10T10:31:10;4.45;;;2.08;;
11247;SDS011;5681;53.316;13.950;2023-05-10T10:33:48;2.67;;;2.00;;
11247;SDS011;5681;53.316;13.950;2023-05-10T10:36:20;4.57;;;1.90;;
11247;SDS011;5681;53.316;13.950;2023-05-10T10:38:57;3.80;;;2.25;;
11247;SDS011;5681;53.316;13.950;2023-05-10T10:41:29;2.88;;;1.85;;
11247;SDS011;5681;53.316;13.950;2023-05-10T10:46:59;2.50;;;1.80;;
11247;SDS011;5681;53.316;13.950;2023-05-10T10:49:31;5.88;;;1.92;;
11247;SDS011;5681;53.316;13.950;2023-05-10T10:54:52;3.65;;;2.20;;
11247;SDS011;5681;53.316;13.950;2023-05-10T10:57:18;5.13;;;2.17;;
11247;SDS011;5681;53.316;13.950;2023-05-10T10:59:46;3.45;;;2.00;;
11247;SDS011;5681;53.316;13.950;2023-05-10T11:08:06;2.08;;;1.60;;
11247;SDS011;5681;53.316;13.950;2023-05-10T11:10:50;4.03;;;1.60;;
11247;SDS011;5681;53.316;13.950;2023-05-10T11:13:26;5.72;;;1.73;;
11247;SDS011;5681;53.316;13.950;2023-05-10T11:15:53;5.05;;;2.05;;
11247;SDS011;5681;53.316;13.950;2023-05-10T11:18:23;7.05;;;1.60;;
11247;SDS011;5681;53.316;13.950;2023-05-10T11:20:50;5.93;;;2.10;;
11247;SDS011;5681;53.316;13.950;2023-05-10T11:23:17;5.13;;;1.60;;
11247;SDS011;5681;53.316;13.950;2023-05-10T11:25:45;2.67;;;1.65;;
11247;SDS011;5681;53.316;13.950;2023-05-10T11:28:13;3.17;;;1.80;;
11247;SDS011;5681;53.316;13.950;2023-05-10T11:30:39;6.00;;;2.22;;
11247;SDS011;5681;53.316;13.950;2023-05-10T11:33:07;3.92;;;1.63;;
11247;SDS011;5681;53.316;13.950;2023-05-10T11:35:37;4.35;;;1.73;;
11247;SDS011;5681;53.316;13.950;2023-05-10T11:38:05;4.65;;;2.05;;
11247;SDS011;5681;53.316;13.950;2023-05-10T11:40:32;3.90;;;1.80;;
11247;SDS011;5681;53.316;13.950;2023-05-10T11:42:58;3.55;;;2.10;;
11247;SDS011;5681;53.316;13.950;2023-05-10T11:45:29;3.92;;;1.90;;
11247;SDS011;5681;53.316;13.950;2023-05-10T11:47:58;6.00;;;2.00;;
11247;SDS011;5681;53.316;13.950;2023-05-10T11:50:24;4.90;;;1.80;;
11247;SDS011;5681;53.316;13.950;2023-05-10T11:52:51;2.80;;;1.70;;
11247;SDS011;5681;53.316;13.950;2023-05-10T11:55:18;5.28;;;1.80;;
11247;SDS011;5681;53.316;13.950;2023-05-10T11:57:44;4.38;;;1.70;;
11247;SDS011;5681;53.316;13.950;2023-05-10T12:00:11;2.28;;;1.63;;
11247;SDS011;5681;53.316;13.950;2023-05-10T12:02:39;2.42;;;1.60;;
11247;SDS011;5681;53.316;13.950;2023-05-10T12:05:06;3.97;;;1.67;;
11247;SDS011;5681;53.316;13.950;2023-05-10T12:07:33;3.70;;;1.80;;
11247;SDS011;5681;53.316;13.950;2023-05-10T12:10:04;2.63;;;1.63;;
11247;SDS011;5681;53.316;13.950;2023-05-10T12:12:37;3.10;;;1.50;;
11247;SDS011;5681;53.316;13.950;2023-05-10T12:15:05;2.33;;;1.50;;
11247;SDS011;5681;53.316;13.950;2023-05-10T12:17:32;4.68;;;1.90;;
11247;SDS011;5681;53.316;13.950;2023-05-10T12:20:00;4.38;;;1.90;;
11247;SDS011;5681;53.316;13.950;2023-05-10T12:22:39;2.40;;;1.40;;
11247;SDS011;5681;53.316;13.950;2023-05-10T12:25:06;3.72;;;1.70;;
11247;SDS011;5681;53.316;13.950;2023-05-10T12:27:34;6.45;;;2.03;;
11247;SDS011;5681;53.316;13.950;2023-05-10T12:30:00;3.53;;;1.80;;
11247;SDS011;5681;53.316;13.950;2023-05-10T12:32:37;3.55;;;1.75;;
11247;SDS011;5681;53.316;13.950;2023-05-10T12:35:05;5.40;;;2.00;;
11247;SDS011;5681;53.316;13.950;2023-05-10T12:37:32;5.47;;;2.10;;
11247;SDS011;5681;53.316;13.950;2023-05-10T12:40:01;3.35;;;2.00;;
11247;SDS011;5681;53.316;13.950;2023-05-10T12:42:29;4.35;;;1.90;;
11247;SDS011;5681;53.316;13.950;2023-05-10T12:44:56;3.33;;;1.60;;
11247;SDS011;5681;53.316;13.950;2023-05-10T12:47:23;4.88;;;2.20;;
11247;SDS011;5681;53.316;13.950;2023-05-10T12:49:49;3.35;;;1.80;;
11247;SDS011;5681;53.316;13.950;2023-05-10T12:52:17;5.78;;;1.90;;
11247;SDS011;5681;53.316;13.950;2023-05-10T12:54:43;5.90;;;2.28;;
11247;SDS011;5681;53.316;13.950;2023-05-10T12:57:10;5.45;;;1.80;;
11247;SDS011;5681;53.316;13.950;2023-05-10T12:59:36;6.32;;;1.90;;
11247;SDS011;5681;53.316;13.950;2023-05-10T13:02:02;2.55;;;1.85;;
11247;SDS011;5681;53.316;13.950;2023-05-10T13:04:29;4.05;;;2.00;;
11247;SDS011;5681;53.316;13.950;2023-05-10T13:06:55;5.18;;;2.00;;
11247;SDS011;5681;53.316;13.950;2023-05-10T13:09:24;4.45;;;1.92;;
11247;SDS011;5681;53.316;13.950;2023-05-10T13:11:51;4.95;;;2.10;;
11247;SDS011;5681;53.316;13.950;2023-05-10T13:14:18;2.90;;;2.17;;
11247;SDS011;5681;53.316;13.950;2023-05-10T13:16:45;6.82;;;2.03;;
11247;SDS011;5681;53.316;13.950;2023-05-10T13:19:12;2.92;;;1.88;;
11247;SDS011;5681;53.316;13.950;2023-05-10T13:21:38;5.13;;;2.10;;
11247;SDS011;5681;53.316;13.950;2023-05-10T13:24:05;4.53;;;1.98;;
11247;SDS011;5681;53.316;13.950;2023-05-10T13:26:33;3.17;;;2.10;;
11247;SDS011;5681;53.316;13.950;2023-05-10T13:29:01;7.70;;;2.08;;
11247;SDS011;5681;53.316;13.950;2023-05-10T13:31:27;2.35;;;1.60;;
11247;SDS011;5681;53.316;13.950;2023-05-10T13:33:54;5.45;;;2.50;;
11247;SDS011;5681;53.316;13.950;2023-05-10T13:36:21;5.78;;;1.88;;
11247;SDS011;5681;53.316;13.950;2023-05-10T13:38:47;6.20;;;1.83;;
11247;SDS011;5681;53.316;13.950;2023-05-10T13:41:14;7.07;;;1.98;;
11247;SDS011;5681;53.316;13.950;2023-05-10T13:43:41;5.47;;;2.15;;
11247;SDS011;5681;53.316;13.950;2023-05-10T13:46:08;3.22;;;1.80;;
11247;SDS011;5681;53.316;13.950;2023-05-10T13:48:34;4.28;;;2.15;;
11247;SDS011;5681;53.316;13.950;2023-05-10T13:51:02;4.07;;;2.05;;
11247;SDS011;5681;53.316;13.950;2023-05-10T13:53:28;5.90;;;2.08;;
11247;SDS011;5681;53.316;13.950;2023-05-10T13:55:55;3.20;;;2.00;;
11247;SDS011;5681;53.316;13.950;2023-05-10T13:58:21;7.07;;;2.38;;
11247;SDS011;5681;53.316;13.950;2023-05-10T14:00:49;3.75;;;1.90;;
11247;SDS011;5681;53.316;13.950;2023-05-10T14:03:16;5.28;;;2.20;;
11247;SDS011;5681;53.316;13.950;2023-05-10T14:05:42;4.00;;;1.80;;
11247;SDS011;5681;53.316;13.950;2023-05-10T14:08:09;2.63;;;1.90;;
11247;SDS011;5681;53.316;13.950;2023-05-10T14:10:38;3.95;;;1.90;;
11247;SDS011;5681;53.316;13.950;2023-05-10T14:13:04;6.63;;;2.00;;
11247;SDS011;5681;53.316;13.950;2023-05-10T14:15:31;1.80;;;1.60;;
11247;SDS011;5681;53.316;13.950;2023-05-10T14:17:58;4.00;;;2.08;;
11247;SDS011;5681;53.316;13.950;2023-05-10T14:20:25;3.40;;;2.00;;
11247;SDS011;5681;53.316;13.950;2023-05-10T14:22:51;6.82;;;1.90;;
11247;SDS011;5681;53.316;13.950;2023-05-10T14:25:18;4.03;;;2.00;;
11247;SDS011;5681;53.316;13.950;2023-05-10T14:27:44;6.80;;;2.17;;
11247;SDS011;5681;53.316;13.950;2023-05-10T14:30:11;3.97;;;1.88;;
11247;SDS011;5681;53.316;13.950;2023-05-10T14:32:38;2.97;;;1.95;;
11247;SDS011;5681;53.316;13.950;2023-05-10T14:35:06;5.95;;;2.22;;
11247;SDS011;5681;53.316;13.950;2023-05-10T14:37:32;5.35;;;2.17;;
11247;SDS011;5681;53.316;13.950;2023-05-10T14:39:59;3.78;;;2.08;;
11247;SDS011;5681;53.316;13.950;2023-05-10T14:42:25;5.32;;;1.95;;
11247;SDS011;5681;53.316;13.950;2023-05-10T14:44:52;4.45;;;2.40;;
11247;SDS011;5681;53.316;13.950;2023-05-10T14:47:18;5.18;;;2.13;;
11247;SDS011;5681;53.316;13.950;2023-05-10T14:49:44;4.95;;;2.00;;
11247;SDS011;5681;53.316;13.950;2023-05-10T14:52:12;5.50;;;2.05;;
11247;SDS011;5681;53.316;13.950;2023-05-10T14:54:39;4.70;;;2.00;;
11247;SDS011;5681;53.316;13.950;2023-05-10T14:57:05;4.30;;;2.05;;
11247;SDS011;5681;53.316;13.950;2023-05-10T14:59:32;4.55;;;1.83;;
11247;SDS011;5681;53.316;13.950;2023-05-10T15:01:58;5.55;;;2.05;;
11247;SDS011;5681;53.316;13.950;2023-05-10T15:04:25;3.50;;;2.00;;